createdAt,value
2018-02-22T00:01:09.647Z,5.00
2018-02-22T00:03:48.280Z,4.90
2018-02-22T00:06:27.059Z,4.80
2018-02-22T00:09:04.670Z,5.00
2018-02-22T00:11:42.962Z,4.80
2018-02-22T00:14:21.624Z,5.00
2018-02-22T00:17:02.655Z,5.00
2018-02-22T00:19:40.956Z,5.00
2018-02-22T00:22:25.787Z,5.00
2018-02-22T00:25:05.338Z,5.00
2018-02-22T00:27:42.724Z,5.00
2018-02-22T00:30:21.212Z,4.90
2018-02-22T00:32:59.658Z,5.00
2018-02-22T00:35:38.136Z,5.00
2018-02-22T00:38:15.741Z,4.60
2018-02-22T00:40:54.241Z,4.50
2018-02-22T00:43:32.740Z,4.50
2018-02-22T00:46:13.155Z,4.20
2018-02-22T00:48:51.790Z,4.60
2018-02-22T00:51:30.348Z,4.30
2018-02-22T00:54:08.746Z,4.20
2018-02-22T00:56:48.325Z,4.00
2018-02-22T00:59:28.895Z,3.80
2018-02-22T01:02:07.552Z,3.80
2018-02-22T01:04:46.164Z,3.80
2018-02-22T01:07:24.538Z,3.80
2018-02-22T01:10:06.014Z,3.60
2018-02-22T01:12:44.570Z,3.80
2018-02-22T01:15:26.155Z,3.50
2018-02-22T01:18:04.987Z,3.70
2018-02-22T01:20:45.553Z,3.60
2018-02-22T01:23:24.093Z,3.40
2018-02-22T01:26:03.394Z,3.10
2018-02-22T01:28:44.118Z,3.10
2018-02-22T01:31:24.565Z,2.90
2018-02-22T01:34:03.128Z,3.00
2018-02-22T01:36:41.873Z,3.00
2018-02-22T01:39:20.383Z,2.90
2018-02-22T01:41:58.980Z,2.80
2018-02-22T01:44:37.199Z,2.80
2018-02-22T01:47:15.661Z,2.40
2018-02-22T01:49:54.132Z,2.50
2018-02-22T01:52:32.541Z,2.30
2018-02-22T01:55:12.729Z,2.10
2018-02-22T01:57:53.229Z,2.10
2018-02-22T02:00:31.701Z,2.00
2018-02-22T02:03:10.193Z,1.90
2018-02-22T02:05:49.860Z,2.00
2018-02-22T02:08:28.250Z,2.00
2018-02-22T02:11:07.557Z,2.00
2018-02-22T02:13:45.596Z,1.80
2018-02-22T02:16:24.146Z,2.10
2018-02-22T02:21:47.085Z,1.70
2018-02-22T02:24:25.750Z,1.70
2018-02-22T02:27:07.303Z,1.80
2018-02-22T02:29:45.779Z,1.60
2018-02-22T02:32:24.282Z,1.80
2018-02-22T02:35:02.671Z,1.80
2018-02-22T02:37:42.317Z,1.70
2018-02-22T02:40:24.050Z,1.60
2018-02-22T02:43:02.625Z,1.70
2018-02-22T02:45:42.181Z,1.50
2018-02-22T02:48:20.638Z,1.70
2018-02-22T02:50:59.420Z,1.70
2018-02-22T02:53:36.928Z,1.50
2018-02-22T02:56:18.534Z,1.50
2018-02-22T02:58:57.128Z,1.70
2018-02-22T03:01:35.524Z,1.70
2018-02-22T03:04:14.953Z,1.60
2018-02-22T03:06:54.454Z,1.40
2018-02-22T03:09:33.916Z,1.30
2018-02-22T03:12:12.453Z,1.40
2018-02-22T03:14:53.079Z,1.50
2018-02-22T03:17:33.747Z,1.40
2018-02-22T03:20:12.250Z,1.50
2018-02-22T03:22:51.001Z,1.70
2018-02-22T03:25:29.593Z,1.70
2018-02-22T03:28:09.833Z,1.30
2018-02-22T03:30:48.787Z,1.50
2018-02-22T03:33:29.585Z,1.50
2018-02-22T03:36:08.311Z,1.30
2018-02-22T03:38:46.704Z,1.50
2018-02-22T03:41:25.369Z,1.30
2018-02-22T03:44:03.611Z,1.50
2018-02-22T03:46:44.336Z,1.30
2018-02-22T03:49:24.761Z,1.30
2018-02-22T03:52:05.177Z,1.30
2018-02-22T03:54:44.247Z,1.50
2018-02-22T03:57:23.610Z,1.50
2018-02-22T04:00:03.956Z,1.50
2018-02-22T04:02:42.375Z,1.20
2018-02-22T04:05:20.714Z,1.40
2018-02-22T04:08:00.160Z,1.20
2018-02-22T04:10:39.704Z,1.30
2018-02-22T04:13:20.366Z,1.30
2018-02-22T04:15:58.714Z,1.00
2018-02-22T04:18:37.185Z,1.30
2018-02-22T04:21:19.673Z,1.10
2018-02-22T04:23:58.536Z,1.00
2018-02-22T04:26:39.215Z,1.30
2018-02-22T04:29:17.995Z,1.30
2018-02-22T04:31:56.559Z,1.30
2018-02-22T04:34:35.074Z,1.20
2018-02-22T04:37:13.694Z,1.30
2018-02-22T04:39:52.274Z,1.20
2018-02-22T04:42:30.918Z,1.10
2018-02-22T04:45:11.419Z,1.20
2018-02-22T04:47:51.827Z,1.00
2018-02-22T04:50:30.229Z,1.30
2018-02-22T04:53:11.015Z,1.30
2018-02-22T04:55:50.433Z,1.30
2018-02-22T04:58:29.163Z,1.30
2018-02-22T05:01:08.716Z,1.30
2018-02-22T05:03:48.132Z,1.00
2018-02-22T05:06:26.749Z,1.10
2018-02-22T05:09:05.317Z,1.30
2018-02-22T05:11:47.835Z,1.30
2018-02-22T05:14:25.592Z,1.30
2018-02-22T05:17:06.006Z,1.10
2018-02-22T05:19:48.454Z,1.20
2018-02-22T05:22:27.918Z,1.10
2018-02-22T05:25:07.384Z,1.00
2018-02-22T05:27:45.791Z,1.20
2018-02-22T05:30:24.129Z,1.00
2018-02-22T05:33:10.690Z,1.00
2018-02-22T05:35:49.530Z,0.90
2018-02-22T05:38:30.186Z,0.80
2018-02-22T05:41:08.612Z,0.80
2018-02-22T05:43:48.936Z,1.00
2018-02-22T05:46:27.352Z,0.80
2018-02-22T05:49:06.893Z,1.00
2018-02-22T05:51:45.256Z,1.00
2018-02-22T05:54:24.756Z,1.00
2018-02-22T05:57:03.335Z,1.00
2018-02-22T05:59:43.227Z,1.00
2018-02-22T06:02:21.760Z,1.00
2018-02-22T06:05:00.155Z,0.90
2018-02-22T06:07:40.817Z,0.90
2018-02-22T06:10:19.350Z,1.00
2018-02-22T06:12:59.930Z,1.00
2018-02-22T06:15:38.614Z,1.00
2018-02-22T06:18:17.177Z,0.80
2018-02-22T06:20:54.639Z,1.00
2018-02-22T06:23:35.290Z,1.00
2018-02-22T06:26:13.876Z,0.80
2018-02-22T06:28:52.476Z,0.90
2018-02-22T06:31:30.967Z,0.90
2018-02-22T06:34:09.635Z,1.00
2018-02-22T06:36:50.008Z,1.10
2018-02-22T06:39:34.636Z,0.70
2018-02-22T06:42:13.050Z,0.70
2018-02-22T06:44:51.464Z,0.90
2018-02-22T06:47:31.171Z,1.00
2018-02-22T06:50:09.691Z,0.80
2018-02-22T06:52:48.455Z,1.00
2018-02-22T06:55:27.855Z,0.70
2018-02-22T06:58:06.707Z,1.00
2018-02-22T07:00:46.211Z,1.00
2018-02-22T07:03:24.852Z,0.80
2018-02-22T07:06:04.440Z,1.00
2018-02-22T07:08:43.085Z,0.80
2018-02-22T07:11:23.753Z,1.00
2018-02-22T07:14:02.122Z,0.70
2018-02-22T07:16:40.596Z,0.90
2018-02-22T07:19:18.998Z,0.70
2018-02-22T07:21:58.556Z,1.10
2018-02-22T07:24:38.379Z,1.00
2018-02-22T07:27:16.980Z,0.70
2018-02-22T07:29:55.624Z,1.00
2018-02-22T07:32:35.237Z,1.20
2018-02-22T07:35:14.915Z,1.20
2018-02-22T07:37:56.386Z,1.20
2018-02-22T07:40:37.975Z,1.30
2018-02-22T07:43:18.372Z,1.10
2018-02-22T07:46:01.868Z,1.20
2018-02-22T07:48:44.377Z,1.00
2018-02-22T07:51:23.989Z,0.90
2018-02-22T07:54:02.529Z,0.90
2018-02-22T07:56:42.698Z,1.10
2018-02-22T07:59:21.628Z,1.10
2018-02-22T08:02:00.077Z,1.20
2018-02-22T08:04:41.401Z,1.30
2018-02-22T08:07:20.324Z,1.10
2018-02-22T08:10:02.777Z,1.10
2018-02-22T08:12:42.836Z,1.00
2018-02-22T08:15:23.837Z,1.00
2018-02-22T08:18:02.335Z,1.10
2018-02-22T08:20:41.885Z,1.20
2018-02-22T08:23:20.396Z,1.20
2018-02-22T08:25:57.878Z,1.20
2018-02-22T08:28:40.750Z,0.90
2018-02-22T08:31:18.919Z,0.70
2018-02-22T08:33:58.591Z,1.00
2018-02-22T08:36:39.955Z,1.00
2018-02-22T08:39:21.347Z,0.70
2018-02-22T08:42:01.019Z,0.90
2018-02-22T08:44:39.728Z,0.90
2018-02-22T08:47:18.502Z,0.80
2018-02-22T08:49:57.139Z,1.00
2018-02-22T08:52:35.523Z,0.80
2018-02-22T08:55:16.018Z,0.70
2018-02-22T08:57:55.472Z,1.00
2018-02-22T09:00:34.861Z,0.40
2018-02-22T09:03:13.265Z,0.40
2018-02-22T09:05:52.679Z,0.40
2018-02-22T09:08:31.331Z,0.80
2018-02-22T09:11:11.853Z,0.80
2018-02-22T09:13:51.709Z,0.80
2018-02-22T09:16:30.253Z,0.80
2018-02-22T09:19:09.800Z,0.40
2018-02-22T09:21:48.271Z,0.60
2018-02-22T09:24:27.759Z,0.70
2018-02-22T09:27:06.170Z,0.70
2018-02-22T09:29:46.627Z,0.90
2018-02-22T09:32:26.107Z,0.80
2018-02-22T09:35:05.890Z,0.60
2018-02-22T09:37:44.446Z,0.70
2018-02-22T09:40:22.905Z,0.60
2018-02-22T09:43:01.707Z,0.80
2018-02-22T09:45:40.325Z,0.70
2018-02-22T09:48:19.275Z,0.50
2018-02-22T09:50:57.804Z,0.40
2018-02-22T09:53:36.288Z,0.40
2018-02-22T09:56:14.764Z,0.70
2018-02-22T09:58:55.456Z,1.00
2018-02-22T10:01:34.942Z,0.60
2018-02-22T10:04:13.487Z,0.80
2018-02-22T10:06:52.084Z,0.40
2018-02-22T10:09:32.611Z,0.70
2018-02-22T10:12:11.067Z,0.70
2018-02-22T10:14:49.634Z,0.70
2018-02-22T10:17:28.101Z,0.60
2018-02-22T10:20:06.640Z,0.80
2018-02-22T10:22:46.063Z,0.40
2018-02-22T10:25:24.594Z,0.70
2018-02-22T10:28:04.060Z,0.50
2018-02-22T10:30:42.439Z,0.60
2018-02-22T10:33:21.882Z,0.60
2018-02-22T10:36:01.407Z,0.60
2018-02-22T10:38:40.921Z,0.30
2018-02-22T10:41:19.368Z,0.40
2018-02-22T10:43:58.784Z,0.20
2018-02-22T10:46:38.713Z,0.70
2018-02-22T10:49:17.340Z,0.40
2018-02-22T10:51:55.923Z,0.50
2018-02-22T10:54:34.166Z,0.30
2018-02-22T10:57:12.731Z,0.20
2018-02-22T10:59:51.229Z,0.40
2018-02-22T11:02:35.894Z,0.70
2018-02-22T11:05:14.262Z,0.20
2018-02-22T11:07:52.793Z,0.10
2018-02-22T11:10:31.328Z,0.20
2018-02-22T11:13:10.864Z,0.20
2018-02-22T11:15:51.630Z,0.30
2018-02-22T11:18:32.155Z,0.20
2018-02-22T11:21:12.747Z,0.20
2018-02-22T11:23:52.330Z,0.20
2018-02-22T11:26:31.752Z,0.20
2018-02-22T11:29:10.335Z,0.20
2018-02-22T11:31:49.789Z,0.10
2018-02-22T11:34:29.567Z,0.20
2018-02-22T11:37:08.221Z,0.20
2018-02-22T11:39:45.532Z,0.00
2018-02-22T11:42:26.425Z,0.00
2018-02-22T11:45:05.841Z,0.20
2018-02-22T11:47:44.359Z,-0.10
2018-02-22T11:50:23.045Z,0.20
2018-02-22T11:53:00.682Z,0.00
2018-02-22T11:55:40.141Z,0.10
2018-02-22T11:58:17.767Z,-0.10
2018-02-22T12:00:56.431Z,0.10
2018-02-22T12:03:36.040Z,-0.30
2018-02-22T12:06:14.772Z,0.20
2018-02-22T12:08:55.356Z,0.00
2018-02-22T12:11:33.734Z,-0.10
2018-02-22T12:14:12.293Z,0.10
2018-02-22T12:16:50.746Z,0.10
2018-02-22T12:19:29.144Z,-0.10
2018-02-22T12:22:07.738Z,0.00
2018-02-22T12:24:47.533Z,0.10
2018-02-22T12:27:25.905Z,0.20
2018-02-22T12:30:04.343Z,-0.30
2018-02-22T12:32:42.802Z,-0.10
2018-02-22T12:35:22.185Z,-0.30
2018-02-22T12:38:00.746Z,-0.30
2018-02-22T12:40:40.277Z,0.20
2018-02-22T12:43:20.566Z,0.20
2018-02-22T12:45:59.205Z,0.20
2018-02-22T12:48:38.776Z,-0.20
2018-02-22T12:51:17.547Z,-0.20
2018-02-22T12:53:56.822Z,-0.20
2018-02-22T12:56:35.322Z,-0.10
2018-02-22T12:59:13.998Z,-0.30
2018-02-22T13:01:53.504Z,-0.20
2018-02-22T13:04:32.034Z,-0.30
2018-02-22T13:07:10.423Z,0.10
2018-02-22T13:09:50.961Z,0.10
2018-02-22T13:12:28.651Z,-0.10
2018-02-22T13:15:07.204Z,0.00
2018-02-22T13:17:45.674Z,-0.30
2018-02-22T13:20:24.221Z,-0.30
2018-02-22T13:23:02.645Z,-0.30
2018-02-22T13:25:42.149Z,-0.30
2018-02-22T13:28:20.626Z,-0.30
2018-02-22T13:30:59.404Z,-0.30
2018-02-22T13:33:51.145Z,-0.30
2018-02-22T13:36:32.871Z,0.00
2018-02-22T13:39:16.362Z,0.20
2018-02-22T13:41:54.878Z,-0.30
2018-02-22T13:44:45.577Z,-0.10
2018-02-22T13:47:28.732Z,-0.10
2018-02-22T13:50:20.400Z,0.00
2018-02-22T13:52:59.018Z,-0.30
2018-02-22T13:55:40.544Z,-0.20
2018-02-22T13:58:19.013Z,-0.10
2018-02-22T14:01:09.776Z,0.20
2018-02-22T14:03:49.208Z,0.20
2018-02-22T14:06:27.881Z,0.30
2018-02-22T14:09:06.353Z,0.00
2018-02-22T14:11:46.049Z,-0.10
2018-02-22T14:14:24.640Z,-0.10
2018-02-22T14:17:03.078Z,0.00
2018-02-22T14:19:42.608Z,-0.10
2018-02-22T14:22:21.261Z,0.10
2018-02-22T14:24:59.599Z,-0.30
2018-02-22T14:27:39.165Z,-0.30
2018-02-22T14:30:17.549Z,-0.10
2018-02-22T14:32:57.945Z,-0.40
2018-02-22T14:35:36.505Z,-0.60
2018-02-22T14:38:15.924Z,-0.70
2018-02-22T14:40:54.546Z,-0.80
2018-02-22T14:43:34.079Z,-0.80
2018-02-22T14:46:13.415Z,-0.80
2018-02-22T14:48:51.950Z,-0.70
2018-02-22T14:51:30.492Z,-0.90
2018-02-22T14:54:09.124Z,-1.20
2018-02-22T14:56:47.607Z,-1.20
2018-02-22T14:59:26.195Z,-1.20
2018-02-22T15:02:06.782Z,-1.20
2018-02-22T15:04:46.249Z,-1.00
2018-02-22T15:07:24.680Z,-1.20
2018-02-22T15:10:04.311Z,-1.20
2018-02-22T15:12:42.879Z,-1.50
2018-02-22T15:15:21.618Z,-1.20
2018-02-22T15:18:00.268Z,-1.40
2018-02-22T15:20:40.720Z,-1.30
2018-02-22T15:23:19.317Z,-1.30
2018-02-22T15:25:58.901Z,-1.40
2018-02-22T15:28:37.628Z,-1.40
2018-02-22T15:31:16.111Z,-1.20
2018-02-22T15:33:54.667Z,-1.50
2018-02-22T15:36:33.131Z,-1.20
2018-02-22T15:39:12.740Z,-1.10
2018-02-22T15:41:53.045Z,-1.30
2018-02-22T15:44:32.441Z,-1.30
2018-02-22T15:47:11.846Z,-0.80
2018-02-22T15:49:51.295Z,-0.80
2018-02-22T15:52:29.982Z,-1.00
2018-02-22T15:55:08.485Z,-1.00
2018-02-22T15:57:48.183Z,-0.60
2018-02-22T16:00:26.712Z,-0.60
2018-02-22T16:03:06.120Z,-0.60
2018-02-22T16:05:44.618Z,-0.60
2018-02-22T16:08:23.019Z,-0.40
2018-02-22T16:11:01.564Z,-0.20
2018-02-22T16:13:39.880Z,-0.10
2018-02-22T16:16:19.441Z,-0.20
2018-02-22T16:18:58.970Z,0.40
2018-02-22T16:21:38.461Z,0.20
2018-02-22T16:24:17.982Z,0.20
2018-02-22T16:26:57.677Z,0.70
2018-02-22T16:29:38.199Z,0.80
2018-02-22T16:32:16.785Z,0.50
2018-02-22T16:34:56.300Z,1.00
2018-02-22T16:37:34.846Z,0.70
2018-02-22T16:40:13.625Z,0.70
2018-02-22T16:42:52.112Z,0.60
2018-02-22T16:45:30.594Z,0.90
2018-02-22T16:48:11.036Z,1.20
2018-02-22T16:50:50.596Z,1.30
2018-02-22T16:53:29.121Z,1.20
2018-02-22T16:56:07.609Z,1.50
2018-02-22T16:58:46.025Z,1.60
2018-02-22T17:01:26.586Z,2.10
2018-02-22T17:04:07.190Z,2.60
2018-02-22T17:06:45.802Z,2.70
2018-02-22T17:09:24.289Z,3.50
2018-02-22T17:12:02.950Z,3.50
2018-02-22T17:14:42.348Z,3.80
2018-02-22T17:17:20.593Z,3.80
2018-02-22T17:19:58.898Z,3.80
2018-02-22T17:22:37.371Z,3.50
2018-02-22T17:25:17.902Z,3.80
2018-02-22T17:28:02.267Z,3.80
2018-02-22T17:30:46.879Z,4.10
2018-02-22T17:33:25.404Z,3.80
2018-02-22T17:36:24.757Z,3.80
2018-02-22T17:42:44.092Z,4.40
2018-02-22T17:45:22.512Z,4.60
2018-02-22T17:48:00.971Z,4.50
2018-02-22T17:50:40.576Z,4.20
2018-02-22T17:53:19.202Z,3.90
2018-02-22T17:55:57.687Z,4.40
2018-02-22T17:58:37.267Z,3.80
2018-02-22T18:01:16.772Z,4.00
2018-02-22T18:03:54.406Z,4.40
2018-02-22T18:06:33.752Z,3.90
2018-02-22T18:09:14.315Z,3.50
2018-02-22T18:11:52.713Z,3.50
2018-02-22T18:14:31.088Z,3.70
2018-02-22T18:17:09.511Z,3.30
2018-02-22T18:19:48.040Z,3.30
2018-02-22T18:22:26.393Z,3.30
2018-02-22T18:25:04.987Z,3.30
2018-02-22T18:27:44.490Z,3.10
2018-02-22T18:30:21.907Z,3.20
2018-02-22T18:33:01.426Z,3.20
2018-02-22T18:35:40.959Z,3.30
2018-02-22T18:38:19.707Z,3.80
2018-02-22T18:41:03.147Z,3.70
2018-02-22T18:43:44.609Z,3.80
2018-02-22T18:46:23.015Z,4.10
2018-02-22T18:49:01.993Z,3.80
2018-02-22T18:51:40.211Z,3.70
2018-02-22T18:54:18.622Z,3.60
2018-02-22T18:56:57.142Z,3.80
2018-02-22T18:59:36.402Z,3.50
2018-02-22T19:02:15.053Z,4.00
2018-02-22T19:04:53.327Z,3.90
2018-02-22T19:07:31.771Z,4.10
2018-02-22T19:10:10.112Z,4.20
2018-02-22T19:12:49.210Z,4.70
2018-02-22T19:15:28.978Z,4.50
2018-02-22T19:18:07.511Z,5.30
2018-02-22T19:20:44.853Z,5.30
2018-02-22T19:23:23.399Z,5.70
2018-02-22T19:26:03.118Z,5.90
2018-02-22T19:28:42.685Z,6.10
2018-02-22T19:31:22.334Z,6.60
2018-02-22T19:34:00.762Z,6.60
2018-02-22T19:36:40.250Z,6.30
2018-02-22T19:39:19.822Z,6.60
2018-02-22T19:41:58.427Z,6.60
2018-02-22T19:44:37.031Z,6.40
2018-02-22T19:47:18.411Z,6.30
2018-02-22T19:49:58.125Z,6.20
2018-02-22T19:52:36.596Z,6.40
2018-02-22T19:55:15.145Z,6.40
2018-02-22T19:57:54.819Z,6.20
2018-02-22T20:00:33.444Z,6.20
2018-02-22T20:03:12.837Z,6.30
2018-02-22T20:05:53.628Z,6.40
2018-02-22T20:08:32.234Z,6.60
2018-02-22T20:11:10.847Z,6.60
2018-02-22T20:13:49.720Z,6.80
2018-02-22T20:16:28.259Z,7.00
2018-02-22T20:19:06.900Z,7.30
2018-02-22T20:21:46.342Z,7.60
2018-02-22T20:24:24.075Z,7.80
2018-02-22T20:27:02.771Z,8.20
2018-02-22T20:29:41.429Z,7.60
2018-02-22T20:32:20.096Z,7.00
2018-02-22T20:34:58.646Z,6.90
2018-02-22T20:37:38.154Z,7.20
2018-02-22T20:40:16.803Z,7.20
2018-02-22T20:42:57.374Z,7.30
2018-02-22T20:45:38.210Z,7.20
2018-02-22T20:48:16.924Z,7.20
2018-02-22T20:51:13.303Z,7.00
2018-02-22T20:53:52.960Z,6.30
2018-02-22T20:56:31.504Z,6.30
2018-02-22T20:59:10.047Z,6.50
2018-02-22T21:01:48.670Z,6.50
2018-02-22T21:04:28.149Z,6.60
2018-02-22T21:07:06.871Z,6.50
2018-02-22T21:09:45.332Z,6.60
2018-02-22T21:12:24.954Z,6.70
2018-02-22T21:15:03.622Z,6.40
2018-02-22T21:17:43.067Z,6.30
2018-02-22T21:20:24.770Z,6.60
2018-02-22T21:23:05.400Z,6.80
2018-02-22T21:25:43.940Z,6.90
2018-02-22T21:28:22.609Z,6.90
2018-02-22T21:31:01.100Z,6.70
2018-02-22T21:33:42.421Z,6.50
2018-02-22T21:36:22.220Z,6.50
2018-02-22T21:39:04.312Z,6.40
2018-02-22T21:41:43.355Z,6.60
2018-02-22T21:44:22.126Z,6.50
2018-02-22T21:47:00.735Z,6.60
2018-02-22T21:49:40.171Z,6.90
2018-02-22T21:52:20.624Z,6.90
2018-02-22T21:54:59.151Z,7.00
2018-02-22T21:57:40.935Z,6.60
2018-02-22T22:00:18.444Z,6.60
2018-02-22T22:02:56.987Z,6.40
2018-02-22T22:05:35.620Z,6.60
2018-02-22T22:08:14.330Z,6.10
2018-02-22T22:10:52.847Z,6.10
2018-02-22T22:13:31.543Z,6.10
2018-02-22T22:16:12.053Z,5.90
2018-02-22T22:18:50.658Z,5.90
2018-02-22T22:21:30.269Z,5.90
2018-02-22T22:24:09.757Z,5.90
2018-02-22T22:26:48.275Z,5.60
2018-02-22T22:29:26.913Z,5.50
2018-02-22T22:32:06.316Z,5.90
2018-02-22T22:34:45.019Z,5.80
2018-02-22T22:37:23.514Z,5.90
2018-02-22T22:40:01.960Z,5.90
2018-02-22T22:42:41.419Z,5.90
2018-02-22T22:45:19.895Z,5.90
2018-02-22T22:47:58.624Z,5.60
2018-02-22T22:50:37.531Z,5.70
2018-02-22T22:53:16.210Z,5.60
2018-02-22T22:55:56.371Z,5.30
2018-02-22T22:58:35.578Z,5.60
2018-02-22T23:01:14.093Z,5.60
2018-02-22T23:03:52.671Z,5.50
2018-02-22T23:06:31.251Z,5.60
2018-02-22T23:09:10.586Z,5.60
2018-02-22T23:11:50.205Z,5.60
2018-02-22T23:14:29.487Z,5.60
2018-02-22T23:17:11.310Z,5.70
2018-02-22T23:19:50.539Z,5.40
2018-02-22T23:22:28.817Z,5.60
2018-02-22T23:25:08.398Z,5.60
2018-02-22T23:27:46.938Z,5.20
2018-02-22T23:30:26.014Z,5.40
2018-02-22T23:33:04.166Z,5.20
2018-02-22T23:35:43.844Z,5.10
2018-02-22T23:38:23.443Z,5.00
2018-02-22T23:41:18.569Z,5.00
2018-02-22T23:43:57.096Z,4.70
2018-02-22T23:46:34.448Z,5.10
2018-02-22T23:49:14.099Z,4.70
2018-02-22T23:51:52.587Z,4.80
2018-02-22T23:54:32.201Z,5.30
2018-02-22T23:57:10.982Z,5.30
2018-02-22T23:59:49.347Z,5.60
